createdAt,value
2023-07-22T00:00:16.057Z,6.80
2023-07-22T00:00:48.451Z,5.65
2023-07-22T00:01:20.248Z,7.93
2023-07-22T00:01:52.123Z,5.90
2023-07-22T00:02:24.087Z,6.70
2023-07-22T00:02:55.772Z,5.88
2023-07-22T00:03:27.597Z,12.65
2023-07-22T00:03:59.724Z,5.85
2023-07-22T00:04:31.417Z,5.28
2023-07-22T00:05:03.264Z,6.60
2023-07-22T00:05:34.959Z,7.65
2023-07-22T00:06:11.453Z,8.35
2023-07-22T00:06:43.088Z,7.18
2023-07-22T00:07:14.745Z,4.90
2023-07-22T00:07:46.323Z,9.23
2023-07-22T00:08:17.941Z,5.78
2023-07-22T00:08:51.089Z,11.05
2023-07-22T00:09:22.870Z,6.80
2023-07-22T00:09:54.577Z,10.65
2023-07-22T00:10:26.265Z,6.53
2023-07-22T00:10:58.204Z,10.30
2023-07-22T00:11:29.841Z,7.72
2023-07-22T00:12:01.583Z,8.55
2023-07-22T00:12:33.421Z,6.68
2023-07-22T00:13:05.090Z,6.00
2023-07-22T00:13:36.813Z,10.43
2023-07-22T00:14:08.393Z,7.15
2023-07-22T00:14:41.826Z,6.63
2023-07-22T00:15:13.615Z,6.47
2023-07-22T00:15:45.460Z,6.80
2023-07-22T00:16:17.266Z,9.18
2023-07-22T00:16:49.069Z,6.43
2023-07-22T00:17:22.243Z,7.30
2023-07-22T00:17:53.970Z,7.10
2023-07-22T00:18:25.697Z,5.55
2023-07-22T00:19:00.170Z,6.00
2023-07-22T00:19:31.905Z,6.18
2023-07-22T00:20:05.690Z,6.97
2023-07-22T00:20:37.323Z,7.45
2023-07-22T00:21:10.179Z,9.45
2023-07-22T00:21:41.787Z,7.10
2023-07-22T00:22:13.376Z,6.28
2023-07-22T00:22:44.930Z,6.88
2023-07-22T00:23:17.189Z,7.00
2023-07-22T00:23:48.834Z,9.18
2023-07-22T00:24:20.589Z,7.85
2023-07-22T00:24:52.232Z,8.27
2023-07-22T00:25:23.887Z,5.50
2023-07-22T00:25:56.331Z,9.57
2023-07-22T00:26:28.595Z,6.95
2023-07-22T00:27:00.567Z,6.88
2023-07-22T00:27:32.203Z,6.70
2023-07-22T00:28:05.230Z,7.30
2023-07-22T00:28:36.826Z,5.93
2023-07-22T00:29:09.137Z,5.10
2023-07-22T00:29:40.758Z,6.82
2023-07-22T00:30:12.537Z,5.47
2023-07-22T00:30:44.221Z,5.93
2023-07-22T00:31:15.905Z,8.20
2023-07-22T00:31:47.500Z,7.00
2023-07-22T00:32:19.122Z,9.57
2023-07-22T00:32:51.686Z,7.63
2023-07-22T00:33:24.787Z,4.82
2023-07-22T00:33:56.591Z,6.28
2023-07-22T00:34:28.213Z,7.40
2023-07-22T00:35:00.098Z,8.65
2023-07-22T00:35:32.955Z,5.57
2023-07-22T00:36:04.928Z,7.13
2023-07-22T00:36:36.667Z,6.07
2023-07-22T00:37:08.373Z,6.13
2023-07-22T00:37:40.475Z,7.93
2023-07-22T00:38:12.255Z,7.45
2023-07-22T00:38:44.920Z,6.43
2023-07-22T00:39:16.646Z,9.57
2023-07-22T00:39:48.327Z,6.32
2023-07-22T00:40:20.531Z,5.68
2023-07-22T00:40:52.216Z,5.45
2023-07-22T00:41:23.925Z,4.97
2023-07-22T00:41:55.529Z,13.27
2023-07-22T00:42:28.267Z,5.88
2023-07-22T00:43:00.691Z,7.13
2023-07-22T00:43:32.859Z,5.65
2023-07-22T00:44:04.704Z,6.03
2023-07-22T00:44:38.107Z,9.40
2023-07-22T00:45:09.842Z,8.40
2023-07-22T00:45:41.495Z,7.63
2023-07-22T00:46:13.225Z,5.43
2023-07-22T00:46:45.944Z,5.65
2023-07-22T00:47:18.686Z,8.60
2023-07-22T00:47:50.970Z,9.60
2023-07-22T00:48:23.371Z,11.90
2023-07-22T00:48:55.193Z,9.45
2023-07-22T00:49:27.500Z,5.88
2023-07-22T00:50:01.464Z,9.30
2023-07-22T00:50:34.105Z,9.77
2023-07-22T00:51:06.458Z,10.38
2023-07-22T00:51:38.231Z,8.45
2023-07-22T00:52:10.140Z,7.63
2023-07-22T00:52:41.849Z,8.63
2023-07-22T00:53:13.633Z,10.35
2023-07-22T00:53:45.307Z,10.18
2023-07-22T00:54:16.977Z,9.85
2023-07-22T00:54:48.662Z,9.00
2023-07-22T00:55:20.199Z,5.38
2023-07-22T00:55:51.892Z,7.63
2023-07-22T00:56:23.648Z,8.25
2023-07-22T00:56:55.866Z,8.27
2023-07-22T00:57:27.551Z,5.93
2023-07-22T00:57:59.140Z,9.27
2023-07-22T00:58:30.731Z,6.40
2023-07-22T00:59:02.799Z,7.53
2023-07-22T00:59:34.471Z,7.55
2023-07-22T01:00:07.172Z,4.55
2023-07-22T01:00:38.954Z,6.93
2023-07-22T01:01:10.733Z,8.50
2023-07-22T01:01:42.429Z,6.68
2023-07-22T01:02:14.290Z,7.18
2023-07-22T01:02:46.036Z,7.53
2023-07-22T01:03:20.072Z,9.02
2023-07-22T01:03:51.895Z,7.30
2023-07-22T01:04:24.081Z,8.18
2023-07-22T01:04:55.722Z,7.78
2023-07-22T01:05:28.246Z,5.95
2023-07-22T01:06:01.782Z,7.20
2023-07-22T01:06:34.720Z,7.53
2023-07-22T01:07:10.024Z,6.63
2023-07-22T01:07:42.625Z,6.28
2023-07-22T01:08:14.757Z,4.43
2023-07-22T01:08:47.787Z,6.88
2023-07-22T01:09:19.493Z,8.70
2023-07-22T01:09:57.287Z,7.80
2023-07-22T01:10:29.715Z,6.65
2023-07-22T01:11:01.407Z,7.10
2023-07-22T01:11:33.054Z,6.43
2023-07-22T01:12:07.242Z,5.82
2023-07-22T01:12:41.603Z,5.88
2023-07-22T01:13:13.167Z,6.53
2023-07-22T01:13:44.815Z,6.15
2023-07-22T01:14:16.532Z,6.28
2023-07-22T01:14:48.126Z,13.38
2023-07-22T01:15:19.797Z,8.38
2023-07-22T01:15:51.606Z,6.10
2023-07-22T01:16:23.370Z,4.88
2023-07-22T01:16:55.431Z,7.10
2023-07-22T01:17:30.114Z,7.30
2023-07-22T01:18:03.632Z,7.10
2023-07-22T01:18:35.796Z,5.43
2023-07-22T01:19:07.925Z,6.60
2023-07-22T01:19:39.790Z,8.20
2023-07-22T01:20:12.176Z,7.95
2023-07-22T01:20:44.180Z,8.73
2023-07-22T01:21:16.682Z,8.52
2023-07-22T01:21:48.427Z,7.97
2023-07-22T01:22:22.464Z,12.43
2023-07-22T01:22:55.395Z,7.78
2023-07-22T01:23:27.041Z,9.32
2023-07-22T01:23:58.895Z,10.20
2023-07-22T01:24:30.758Z,13.65
2023-07-22T01:25:02.720Z,8.20
2023-07-22T01:25:34.419Z,9.20
2023-07-22T01:26:06.693Z,7.57
2023-07-22T01:26:38.275Z,6.20
2023-07-22T01:27:11.386Z,7.95
2023-07-22T01:27:45.301Z,6.57
2023-07-22T01:28:16.868Z,9.52
2023-07-22T01:28:48.470Z,6.65
2023-07-22T01:29:20.027Z,8.15
2023-07-22T01:29:52.761Z,5.70
2023-07-22T01:30:24.478Z,6.75
2023-07-22T01:30:56.299Z,6.90
2023-07-22T01:31:28.131Z,7.65
2023-07-22T01:32:00.484Z,6.35
2023-07-22T01:32:32.831Z,6.55
2023-07-22T01:33:04.579Z,5.97
2023-07-22T01:33:36.303Z,8.13
2023-07-22T01:34:08.350Z,5.55
2023-07-22T01:34:40.989Z,6.68
2023-07-22T01:35:12.607Z,9.05
2023-07-22T01:35:44.185Z,6.43
2023-07-22T01:36:15.747Z,8.30
2023-07-22T01:36:48.619Z,12.43
2023-07-22T01:37:20.276Z,11.15
2023-07-22T01:37:51.927Z,8.45
2023-07-22T01:38:23.450Z,7.07
2023-07-22T01:38:55.610Z,6.50
2023-07-22T01:39:28.649Z,7.28
2023-07-22T01:40:00.476Z,6.28
2023-07-22T01:40:32.279Z,6.07
2023-07-22T01:41:03.905Z,6.90
2023-07-22T01:41:35.599Z,6.30
2023-07-22T01:42:07.254Z,7.57
2023-07-22T01:42:44.796Z,7.93
2023-07-22T01:43:16.466Z,5.97
2023-07-22T01:43:48.058Z,10.27
2023-07-22T01:44:19.622Z,8.85
2023-07-22T01:44:51.518Z,7.57
2023-07-22T01:45:23.217Z,7.38
2023-07-22T01:45:54.886Z,6.28
2023-07-22T01:46:26.906Z,7.55
2023-07-22T01:46:58.704Z,6.60
2023-07-22T01:47:30.277Z,7.70
2023-07-22T01:48:01.885Z,7.13
2023-07-22T01:48:33.621Z,7.55
2023-07-22T01:49:07.969Z,7.25
2023-07-22T01:49:39.516Z,6.30
2023-07-22T01:50:11.530Z,6.90
2023-07-22T01:50:43.207Z,9.90
2023-07-22T01:51:15.439Z,8.18
2023-07-22T01:51:47.198Z,7.95
2023-07-22T01:52:18.756Z,6.85
2023-07-22T01:52:50.378Z,6.30
2023-07-22T01:53:21.979Z,7.68
2023-07-22T01:53:53.665Z,7.80
2023-07-22T01:54:25.237Z,8.98
2023-07-22T01:54:56.856Z,6.28
2023-07-22T01:55:28.472Z,9.48
2023-07-22T01:56:00.070Z,7.30
2023-07-22T01:56:32.015Z,7.90
2023-07-22T01:57:04.311Z,8.65
2023-07-22T01:57:35.991Z,11.50
2023-07-22T01:58:07.720Z,6.38
2023-07-22T01:58:39.318Z,11.38
2023-07-22T01:59:10.952Z,7.07
2023-07-22T01:59:43.360Z,7.97
2023-07-22T02:00:18.121Z,9.52
2023-07-22T02:00:51.632Z,9.10
2023-07-22T02:01:23.258Z,9.60
2023-07-22T02:01:54.922Z,10.98
2023-07-22T02:02:27.503Z,7.43
2023-07-22T02:02:59.217Z,8.80
2023-07-22T02:03:31.002Z,7.78
2023-07-22T02:04:02.694Z,8.57
2023-07-22T02:04:34.373Z,9.77
2023-07-22T02:05:07.183Z,9.93
2023-07-22T02:05:39.827Z,8.27
2023-07-22T02:06:11.450Z,7.38
2023-07-22T02:06:43.130Z,11.25
2023-07-22T02:07:14.882Z,8.57
2023-07-22T02:07:47.160Z,8.85
2023-07-22T02:08:18.780Z,9.00
2023-07-22T02:08:50.624Z,8.60
2023-07-22T02:09:22.359Z,9.32
2023-07-22T02:09:54.515Z,8.52
2023-07-22T02:10:26.100Z,11.30
2023-07-22T02:11:08.092Z,9.93
2023-07-22T02:11:39.728Z,7.90
2023-07-22T02:12:12.467Z,9.77
2023-07-22T02:12:44.046Z,7.63
2023-07-22T02:13:15.621Z,8.25
2023-07-22T02:13:47.416Z,11.88
2023-07-22T02:14:19.044Z,8.07
2023-07-22T02:14:50.825Z,8.85
2023-07-22T02:15:23.251Z,6.85
2023-07-22T02:15:55.537Z,8.63
2023-07-22T02:16:27.432Z,7.88
2023-07-22T02:16:59.415Z,8.40
2023-07-22T02:17:31.984Z,7.13
2023-07-22T02:18:03.884Z,8.43
2023-07-22T02:18:35.548Z,11.88
2023-07-22T02:19:07.427Z,7.30
2023-07-22T02:19:45.955Z,6.57
2023-07-22T02:20:18.355Z,12.43
2023-07-22T02:20:49.882Z,5.38
2023-07-22T02:21:21.455Z,7.20
2023-07-22T02:21:53.108Z,6.43
2023-07-22T02:22:24.747Z,8.75
2023-07-22T02:22:56.421Z,10.77
2023-07-22T02:23:28.104Z,8.15
2023-07-22T02:23:59.691Z,7.43
2023-07-22T02:24:31.514Z,7.90
2023-07-22T02:25:04.420Z,8.55
2023-07-22T02:25:37.082Z,10.35
2023-07-22T02:26:08.918Z,8.57
2023-07-22T02:26:40.535Z,10.52
2023-07-22T02:27:12.245Z,6.88
2023-07-22T02:27:44.948Z,8.23
2023-07-22T02:28:16.773Z,11.77
2023-07-22T02:28:49.195Z,30.27
2023-07-22T02:29:23.650Z,10.43
2023-07-22T02:29:55.223Z,9.40
2023-07-22T02:30:26.855Z,9.60
2023-07-22T02:31:03.472Z,9.07
2023-07-22T02:31:35.133Z,8.43
2023-07-22T02:32:06.976Z,7.43
2023-07-22T02:32:40.312Z,12.82
2023-07-22T02:33:12.035Z,7.72
2023-07-22T02:33:43.934Z,8.07
2023-07-22T02:34:15.485Z,7.68
2023-07-22T02:34:47.044Z,8.43
2023-07-22T02:35:18.614Z,7.07
2023-07-22T02:35:50.418Z,6.72
2023-07-22T02:36:22.121Z,9.88
2023-07-22T02:36:53.666Z,6.25
2023-07-22T02:37:25.239Z,8.98
2023-07-22T02:37:56.984Z,11.50
2023-07-22T02:38:28.529Z,7.05
2023-07-22T02:39:00.101Z,8.45
2023-07-22T02:39:31.658Z,7.50
2023-07-22T02:40:08.876Z,11.07
2023-07-22T02:40:41.941Z,6.55
2023-07-22T02:41:13.592Z,9.20
2023-07-22T02:41:45.242Z,8.25
2023-07-22T02:42:16.864Z,7.95
2023-07-22T02:42:49.279Z,8.45
2023-07-22T02:43:20.827Z,7.35
2023-07-22T02:43:52.363Z,8.32
2023-07-22T02:44:23.999Z,8.23
2023-07-22T02:44:55.711Z,8.55
2023-07-22T02:45:27.881Z,7.47
2023-07-22T02:46:05.271Z,8.57
2023-07-22T02:46:36.996Z,10.43
2023-07-22T02:47:08.602Z,8.65
2023-07-22T02:47:40.274Z,8.63
2023-07-22T02:48:11.938Z,7.03
2023-07-22T02:48:43.487Z,12.02
2023-07-22T02:49:15.026Z,8.55
2023-07-22T02:49:46.638Z,8.35
2023-07-22T02:50:18.294Z,6.97
2023-07-22T02:50:51.036Z,9.60
2023-07-22T02:51:22.563Z,9.30
2023-07-22T02:51:54.194Z,7.60
2023-07-22T02:52:25.860Z,10.07
2023-07-22T02:52:57.627Z,8.80
2023-07-22T02:53:29.149Z,7.22
2023-07-22T02:54:00.680Z,8.52
2023-07-22T02:54:32.256Z,8.32
2023-07-22T02:55:08.252Z,8.50
2023-07-22T02:55:39.832Z,9.10
2023-07-22T02:56:12.371Z,7.10
2023-07-22T02:56:44.000Z,8.23
2023-07-22T02:57:15.529Z,10.68
2023-07-22T02:57:48.279Z,6.90
2023-07-22T02:58:19.855Z,9.45
2023-07-22T02:58:51.618Z,11.20
2023-07-22T02:59:23.364Z,11.93
2023-07-22T02:59:54.950Z,10.13
2023-07-22T03:00:26.827Z,10.43
2023-07-22T03:00:59.016Z,8.88
2023-07-22T03:01:30.858Z,8.50
2023-07-22T03:02:02.507Z,8.52
2023-07-22T03:02:34.898Z,8.70
2023-07-22T03:03:06.498Z,8.02
2023-07-22T03:03:38.259Z,9.35
2023-07-22T03:04:10.590Z,8.15
2023-07-22T03:04:42.980Z,9.80
2023-07-22T03:05:14.710Z,10.90
2023-07-22T03:05:46.631Z,8.25
2023-07-22T03:06:18.178Z,11.00
2023-07-22T03:06:49.994Z,8.23
2023-07-22T03:07:21.659Z,9.35
2023-07-22T03:07:54.377Z,9.88
2023-07-22T03:08:26.302Z,8.50
2023-07-22T03:08:59.016Z,9.73
2023-07-22T03:09:30.557Z,9.70
2023-07-22T03:10:02.198Z,7.93
2023-07-22T03:10:34.332Z,8.00
2023-07-22T03:11:08.936Z,8.52
2023-07-22T03:11:40.468Z,11.07
2023-07-22T03:12:12.032Z,12.57
2023-07-22T03:12:43.721Z,7.80
2023-07-22T03:13:16.606Z,9.82
2023-07-22T03:13:48.918Z,9.55
2023-07-22T03:14:21.716Z,11.70
2023-07-22T03:14:53.245Z,7.88
2023-07-22T03:15:27.020Z,11.73
2023-07-22T03:15:59.334Z,6.90
2023-07-22T03:16:32.903Z,9.02
2023-07-22T03:17:07.375Z,9.65
2023-07-22T03:17:39.800Z,12.05
2023-07-22T03:18:12.521Z,10.85
2023-07-22T03:18:45.710Z,8.38
2023-07-22T03:19:17.260Z,9.98
2023-07-22T03:19:50.312Z,9.40
2023-07-22T03:20:23.223Z,9.13
2023-07-22T03:20:54.790Z,9.98
2023-07-22T03:21:26.331Z,9.27
2023-07-22T03:21:57.881Z,9.50
2023-07-22T03:22:29.522Z,8.25
2023-07-22T03:23:01.154Z,11.15
2023-07-22T03:23:32.692Z,11.15
2023-07-22T03:24:04.708Z,8.27
2023-07-22T03:24:36.459Z,9.57
2023-07-22T03:25:11.376Z,9.25
2023-07-22T03:25:43.530Z,10.40
2023-07-22T03:26:15.164Z,9.43
2023-07-22T03:26:46.736Z,9.05
2023-07-22T03:27:18.639Z,9.35
2023-07-22T03:27:50.338Z,10.05
2023-07-22T03:28:21.885Z,8.68
2023-07-22T03:28:53.398Z,12.40
2023-07-22T03:29:25.399Z,8.02
2023-07-22T03:29:57.118Z,8.73
2023-07-22T03:30:28.717Z,8.73
2023-07-22T03:31:00.342Z,8.63
2023-07-22T03:31:32.002Z,8.82
2023-07-22T03:32:03.790Z,9.38
2023-07-22T03:32:36.062Z,8.70
2023-07-22T03:33:07.746Z,9.18
2023-07-22T03:33:39.998Z,10.68
2023-07-22T03:34:11.631Z,9.82
2023-07-22T03:34:43.263Z,9.57
2023-07-22T03:35:15.283Z,6.60
2023-07-22T03:35:46.971Z,11.38
2023-07-22T03:36:18.496Z,9.40
2023-07-22T03:36:50.128Z,7.80
2023-07-22T03:37:21.805Z,11.45
2023-07-22T03:37:53.489Z,10.25
2023-07-22T03:38:25.378Z,10.45
2023-07-22T03:38:58.284Z,14.00
2023-07-22T03:39:29.861Z,10.02
2023-07-22T03:40:01.740Z,10.00
2023-07-22T03:40:33.900Z,9.40
2023-07-22T03:41:08.077Z,9.10
2023-07-22T03:41:39.639Z,11.65
2023-07-22T03:42:11.208Z,8.98
2023-07-22T03:42:42.894Z,13.50
2023-07-22T03:43:14.546Z,10.00
2023-07-22T03:43:46.083Z,11.02
2023-07-22T03:44:18.100Z,9.82
2023-07-22T03:44:49.675Z,9.48
2023-07-22T03:45:22.224Z,12.40
2023-07-22T03:45:53.999Z,10.52
2023-07-22T03:46:25.961Z,8.55
2023-07-22T03:46:57.808Z,8.77
2023-07-22T03:47:29.409Z,10.25
2023-07-22T03:48:01.720Z,10.60
2023-07-22T03:48:33.448Z,9.85
2023-07-22T03:49:05.997Z,10.95
2023-07-22T03:49:37.705Z,11.18
2023-07-22T03:50:09.803Z,12.80
2023-07-22T03:50:41.328Z,9.40
2023-07-22T03:51:20.046Z,12.05
2023-07-22T03:51:52.785Z,11.77
2023-07-22T03:52:24.732Z,9.73
2023-07-22T03:52:56.624Z,11.40
2023-07-22T03:53:28.256Z,8.98
2023-07-22T03:54:00.117Z,17.20
2023-07-22T03:54:31.782Z,11.27
2023-07-22T03:55:03.839Z,9.40
2023-07-22T03:55:35.489Z,11.82
2023-07-22T03:56:07.054Z,11.32
2023-07-22T03:56:41.974Z,11.48
2023-07-22T03:57:13.652Z,11.18
2023-07-22T03:57:45.263Z,9.68
2023-07-22T03:58:17.185Z,13.75
2023-07-22T03:58:53.253Z,13.07
2023-07-22T03:59:25.075Z,14.77
2023-07-22T03:59:57.195Z,15.30
2023-07-22T04:00:28.780Z,14.68
2023-07-22T04:01:00.438Z,12.18
2023-07-22T04:01:32.088Z,17.40
2023-07-22T04:02:04.038Z,13.50
2023-07-22T04:02:38.434Z,12.70
2023-07-22T04:03:10.121Z,15.32
2023-07-22T04:03:42.019Z,12.75
2023-07-22T04:04:13.712Z,14.57
2023-07-22T04:04:45.274Z,12.27
2023-07-22T04:05:16.821Z,13.23
2023-07-22T04:05:57.749Z,16.60
2023-07-22T04:07:01.659Z,16.13
2023-07-22T04:07:33.438Z,19.10
2023-07-22T04:08:05.493Z,14.27
2023-07-22T04:08:37.166Z,11.90
2023-07-22T04:09:09.803Z,14.02
2023-07-22T04:09:41.729Z,13.05
2023-07-22T04:10:13.298Z,15.00
2023-07-22T04:10:52.800Z,14.40
2023-07-22T04:11:24.451Z,15.60
2023-07-22T04:11:56.008Z,14.93
2023-07-22T04:12:27.601Z,9.20
2023-07-22T04:12:59.142Z,14.25
2023-07-22T04:13:30.760Z,12.40
2023-07-22T04:14:02.329Z,13.18
2023-07-22T04:14:33.960Z,13.60
2023-07-22T04:15:06.290Z,13.15
2023-07-22T04:15:37.824Z,13.18
2023-07-22T04:16:09.370Z,12.23
2023-07-22T04:16:41.279Z,13.02
2023-07-22T04:17:12.992Z,16.17
2023-07-22T04:17:44.579Z,14.38
2023-07-22T04:18:17.469Z,13.13
2023-07-22T04:18:49.053Z,17.58
2023-07-22T04:19:20.690Z,12.18
2023-07-22T04:19:53.207Z,12.70
2023-07-22T04:20:26.146Z,12.48
2023-07-22T04:21:00.612Z,16.67
2023-07-22T04:21:32.173Z,14.05
2023-07-22T04:22:05.479Z,12.77
2023-07-22T04:22:37.068Z,12.25
2023-07-22T04:23:08.764Z,13.75
2023-07-22T04:23:41.921Z,11.93
2023-07-22T04:24:13.570Z,10.98
2023-07-22T04:24:45.244Z,18.05
2023-07-22T04:25:17.165Z,10.65
2023-07-22T04:25:48.854Z,16.08
2023-07-22T04:26:20.476Z,11.35
2023-07-22T04:26:52.238Z,12.93
2023-07-22T04:27:24.703Z,14.30
2023-07-22T04:27:56.629Z,14.52
2023-07-22T04:28:28.281Z,16.67
2023-07-22T04:29:00.789Z,12.20
2023-07-22T04:29:32.420Z,14.68
2023-07-22T04:30:04.280Z,11.70
2023-07-22T04:30:36.573Z,15.70
2023-07-22T04:31:10.468Z,10.10
2023-07-22T04:31:42.107Z,15.48
2023-07-22T04:32:14.182Z,9.52
2023-07-22T04:32:45.854Z,12.35
2023-07-22T04:33:17.543Z,11.95
2023-07-22T04:33:49.097Z,10.85
2023-07-22T04:34:20.685Z,9.52
2023-07-22T04:34:52.221Z,13.18
2023-07-22T04:35:23.946Z,10.05
2023-07-22T04:35:59.118Z,11.20
2023-07-22T04:36:30.702Z,9.55
2023-07-22T04:37:02.892Z,11.95
2023-07-22T04:37:34.779Z,16.73
2023-07-22T04:38:06.564Z,11.55
2023-07-22T04:38:38.106Z,16.98
2023-07-22T04:39:09.872Z,15.23
2023-07-22T04:39:41.432Z,13.25
2023-07-22T04:40:15.374Z,13.77
2023-07-22T04:40:47.052Z,14.90
2023-07-22T04:41:18.642Z,14.07
2023-07-22T04:41:50.248Z,13.23
2023-07-22T04:42:21.968Z,10.57
2023-07-22T04:42:53.665Z,15.77
2023-07-22T04:43:25.825Z,15.68
2023-07-22T04:43:59.604Z,12.60
2023-07-22T04:44:31.205Z,12.82
2023-07-22T04:45:03.836Z,13.90
2023-07-22T04:45:35.594Z,14.30
2023-07-22T04:46:07.738Z,13.85
2023-07-22T04:46:39.454Z,15.00
2023-07-22T04:47:11.974Z,12.65
2023-07-22T04:47:45.697Z,13.10
2023-07-22T04:48:20.796Z,14.45
2023-07-22T04:48:55.096Z,13.98
2023-07-22T04:49:26.825Z,12.65
2023-07-22T04:49:58.387Z,14.77
2023-07-22T04:50:30.198Z,16.67
2023-07-22T04:51:01.776Z,13.23
2023-07-22T04:51:33.430Z,15.00
2023-07-22T04:52:05.425Z,15.07
2023-07-22T04:52:37.905Z,15.30
2023-07-22T04:53:09.499Z,14.43
2023-07-22T04:53:41.035Z,13.32
2023-07-22T04:54:12.892Z,12.25
2023-07-22T04:54:44.515Z,15.45
2023-07-22T04:55:16.156Z,13.98
2023-07-22T04:55:47.759Z,17.98
2023-07-22T04:56:19.297Z,13.20
2023-07-22T04:56:50.840Z,12.80
2023-07-22T04:57:22.647Z,15.05
2023-07-22T04:57:54.232Z,13.57
2023-07-22T04:58:26.068Z,16.35
2023-07-22T04:58:57.631Z,13.93
2023-07-22T04:59:29.589Z,16.70
2023-07-22T05:00:01.182Z,16.75
2023-07-22T05:00:32.971Z,15.98
2023-07-22T05:01:04.804Z,18.05
2023-07-22T05:01:36.609Z,16.75
2023-07-22T05:02:08.120Z,16.60
2023-07-22T05:02:39.855Z,15.95
2023-07-22T05:03:11.810Z,17.30
2023-07-22T05:03:44.285Z,18.83
2023-07-22T05:04:15.831Z,18.38
2023-07-22T05:04:47.410Z,20.08
2023-07-22T05:05:19.040Z,15.50
2023-07-22T05:05:50.648Z,16.83
2023-07-22T05:06:22.700Z,16.42
2023-07-22T05:06:54.350Z,18.90
2023-07-22T05:07:26.186Z,17.10
2023-07-22T05:07:58.245Z,21.27
2023-07-22T05:08:29.809Z,20.75
2023-07-22T05:09:01.535Z,20.95
2023-07-22T05:09:34.247Z,16.55
2023-07-22T05:10:08.374Z,17.05
2023-07-22T05:10:40.641Z,17.85
2023-07-22T05:11:12.253Z,18.38
2023-07-22T05:11:43.808Z,14.70
2023-07-22T05:12:15.386Z,21.83
2023-07-22T05:12:47.240Z,14.57
2023-07-22T05:13:18.877Z,16.27
2023-07-22T05:13:51.784Z,18.23
2023-07-22T05:14:24.241Z,17.92
2023-07-22T05:14:55.784Z,19.55
2023-07-22T05:15:27.455Z,19.27
2023-07-22T05:15:59.026Z,18.15
2023-07-22T05:16:31.030Z,16.10
2023-07-22T05:17:03.097Z,20.17
2023-07-22T05:17:34.932Z,18.40
2023-07-22T05:18:06.578Z,19.40
2023-07-22T05:18:39.819Z,19.23
2023-07-22T05:19:11.444Z,19.33
2023-07-22T05:19:42.988Z,22.58
2023-07-22T05:20:14.626Z,21.55
2023-07-22T05:20:46.354Z,18.30
2023-07-22T05:21:17.874Z,24.23
2023-07-22T05:21:49.483Z,17.80
2023-07-22T05:22:21.063Z,21.77
2023-07-22T05:22:53.175Z,19.70
2023-07-22T05:23:24.717Z,27.38
2023-07-22T05:23:56.293Z,18.92
2023-07-22T05:24:28.125Z,18.55
2023-07-22T05:25:00.404Z,19.65
2023-07-22T05:25:32.013Z,23.55
2023-07-22T05:26:03.610Z,19.17
2023-07-22T05:26:35.144Z,20.85
2023-07-22T05:27:09.615Z,19.23
2023-07-22T05:27:42.147Z,20.67
2023-07-22T05:28:13.724Z,19.75
2023-07-22T05:28:45.326Z,27.33
2023-07-22T05:29:16.872Z,19.48
2023-07-22T05:29:48.501Z,25.35
2023-07-22T05:30:34.222Z,23.27
2023-07-22T05:31:07.793Z,24.73
2023-07-22T05:31:39.946Z,20.50
2023-07-22T05:32:27.363Z,18.13
2023-07-22T05:33:03.394Z,18.52
2023-07-22T05:33:34.997Z,21.27
2023-07-22T05:34:06.521Z,20.95
2023-07-22T05:34:38.261Z,21.63
2023-07-22T05:35:10.166Z,22.42
2023-07-22T05:35:41.845Z,22.58
2023-07-22T05:36:13.468Z,24.77
2023-07-22T05:36:45.041Z,22.95
2023-07-22T05:37:16.627Z,25.67
2023-07-22T05:37:48.167Z,25.10
2023-07-22T05:38:19.842Z,22.30
2023-07-22T05:38:51.388Z,21.30
2023-07-22T05:39:22.964Z,17.23
2023-07-22T05:39:54.582Z,19.00
2023-07-22T05:40:26.177Z,22.85
2023-07-22T05:40:57.748Z,25.27
2023-07-22T05:41:29.300Z,25.15
2023-07-22T05:42:00.888Z,26.95
2023-07-22T05:42:32.459Z,20.35
2023-07-22T05:43:04.159Z,22.77
2023-07-22T05:43:35.904Z,22.88
2023-07-22T05:44:07.484Z,19.42
2023-07-22T05:44:39.028Z,25.80
2023-07-22T05:45:14.845Z,22.55
2023-07-22T05:45:46.385Z,22.20
2023-07-22T05:46:18.044Z,25.15
2023-07-22T05:46:49.712Z,25.42
2023-07-22T05:47:21.305Z,23.42
2023-07-22T05:47:53.091Z,27.23
2023-07-22T05:48:24.693Z,27.60
2023-07-22T05:48:56.234Z,19.92
2023-07-22T05:49:27.763Z,24.75
2023-07-22T05:49:59.439Z,20.60
2023-07-22T05:50:31.058Z,22.25
2023-07-22T05:51:02.823Z,23.23
2023-07-22T05:51:34.349Z,22.65
2023-07-22T05:52:06.428Z,19.95
2023-07-22T05:52:38.530Z,26.13
2023-07-22T05:53:10.254Z,28.02
2023-07-22T05:53:41.842Z,20.33
2023-07-22T05:54:13.395Z,22.08
2023-07-22T05:54:44.978Z,25.38
2023-07-22T05:55:16.623Z,27.92
2023-07-22T05:55:48.287Z,24.92
2023-07-22T05:56:19.803Z,22.45
2023-07-22T05:56:51.343Z,20.75
2023-07-22T05:57:22.893Z,23.17
2023-07-22T05:57:54.763Z,24.13
2023-07-22T05:58:26.310Z,25.35
2023-07-22T05:58:57.867Z,23.38
2023-07-22T05:59:29.476Z,27.00
2023-07-22T06:00:43.851Z,23.55
2023-07-22T06:01:16.058Z,26.92
2023-07-22T06:01:47.739Z,27.08
2023-07-22T06:02:19.646Z,24.10
2023-07-22T06:02:51.274Z,20.67
2023-07-22T06:03:23.164Z,23.13
2023-07-22T06:03:54.906Z,25.73
2023-07-22T06:04:26.611Z,24.00
2023-07-22T06:04:58.318Z,22.85
2023-07-22T06:05:29.878Z,23.38
2023-07-22T06:06:01.476Z,24.33
2023-07-22T06:06:33.458Z,25.02
2023-07-22T06:07:05.573Z,22.90
2023-07-22T06:07:37.892Z,20.20
2023-07-22T06:08:09.802Z,27.23
2023-07-22T06:08:41.502Z,24.90
2023-07-22T06:09:13.076Z,28.55
2023-07-22T06:09:44.643Z,22.60
2023-07-22T06:10:16.438Z,22.77
2023-07-22T06:10:48.063Z,26.88
2023-07-22T06:11:19.697Z,21.60
2023-07-22T06:11:52.756Z,28.27
2023-07-22T06:12:55.929Z,23.45
2023-07-22T06:13:28.006Z,21.15
2023-07-22T06:13:59.600Z,24.55
2023-07-22T06:14:31.141Z,23.02
2023-07-22T06:15:03.742Z,21.00
2023-07-22T06:15:35.704Z,27.38
2023-07-22T06:16:07.333Z,26.38
2023-07-22T06:16:39.136Z,20.50
2023-07-22T06:17:10.925Z,19.85
2023-07-22T06:17:42.693Z,21.40
2023-07-22T06:18:14.254Z,22.63
2023-07-22T06:18:45.858Z,18.42
2023-07-22T06:19:17.806Z,22.08
2023-07-22T06:19:49.340Z,22.27
2023-07-22T06:20:20.913Z,33.38
2023-07-22T06:20:52.644Z,22.85
2023-07-22T06:21:24.176Z,24.20
2023-07-22T06:21:55.773Z,20.27
2023-07-22T06:22:27.288Z,19.92
2023-07-22T06:22:58.924Z,26.95
2023-07-22T06:23:31.274Z,18.92
2023-07-22T06:24:02.826Z,20.50
2023-07-22T06:24:34.584Z,29.27
2023-07-22T06:25:07.479Z,22.67
2023-07-22T06:25:39.286Z,20.52
2023-07-22T06:26:10.925Z,20.38
2023-07-22T06:26:42.626Z,24.83
2023-07-22T06:27:14.448Z,28.80
2023-07-22T06:27:46.274Z,22.85
2023-07-22T06:28:18.004Z,23.20
2023-07-22T06:28:52.367Z,21.15
2023-07-22T06:29:23.971Z,17.95
2023-07-22T06:29:56.307Z,20.40
2023-07-22T06:30:28.434Z,23.02
2023-07-22T06:31:00.269Z,18.38
2023-07-22T06:31:32.014Z,22.02
2023-07-22T06:32:04.228Z,20.23
2023-07-22T06:32:38.217Z,19.25
2023-07-22T06:33:11.739Z,21.05
2023-07-22T06:33:43.412Z,21.60
2023-07-22T06:34:15.010Z,19.20
2023-07-22T06:34:46.705Z,20.17
2023-07-22T06:35:18.565Z,18.98
2023-07-22T06:35:52.135Z,22.75
2023-07-22T06:36:24.950Z,22.30
2023-07-22T06:36:56.768Z,23.15
2023-07-22T06:37:28.387Z,20.40
2023-07-22T06:38:00.002Z,19.35
2023-07-22T06:38:31.758Z,24.15
2023-07-22T06:39:03.506Z,20.15
2023-07-22T06:39:35.056Z,24.50
2023-07-22T06:40:07.472Z,18.40
2023-07-22T06:40:39.053Z,19.42
2023-07-22T06:41:10.830Z,25.48
2023-07-22T06:41:42.473Z,20.60
2023-07-22T06:42:14.106Z,18.65
2023-07-22T06:42:46.186Z,24.33
2023-07-22T06:43:17.831Z,21.98
2023-07-22T06:43:49.548Z,20.98
2023-07-22T06:44:21.110Z,20.75
2023-07-22T06:44:53.764Z,21.88
2023-07-22T06:45:25.326Z,21.02
2023-07-22T06:45:56.889Z,19.38
2023-07-22T06:46:28.877Z,18.48
2023-07-22T06:47:00.743Z,22.50
2023-07-22T06:47:32.323Z,19.05
2023-07-22T06:48:04.133Z,18.08
2023-07-22T06:48:35.794Z,24.35
2023-07-22T06:49:07.518Z,15.73
2023-07-22T06:49:39.442Z,21.92
2023-07-22T06:50:11.245Z,19.77
2023-07-22T06:50:50.963Z,26.02
2023-07-22T06:51:22.613Z,17.70
2023-07-22T06:51:54.229Z,18.88
2023-07-22T06:52:25.896Z,20.08
2023-07-22T06:52:57.557Z,23.77
2023-07-22T06:53:29.114Z,18.33
2023-07-22T06:54:00.663Z,18.38
2023-07-22T06:54:32.218Z,16.15
2023-07-22T06:55:04.076Z,18.92
2023-07-22T06:55:35.742Z,20.85
2023-07-22T06:56:07.433Z,18.63
2023-07-22T06:56:39.034Z,17.55
2023-07-22T06:57:10.686Z,18.73
2023-07-22T06:57:42.404Z,19.63
2023-07-22T06:58:13.922Z,16.90
2023-07-22T06:58:45.631Z,16.67
2023-07-22T06:59:17.308Z,20.15
2023-07-22T06:59:48.859Z,17.88
2023-07-22T07:00:32.389Z,17.58
2023-07-22T07:01:04.331Z,17.35
2023-07-22T07:01:35.944Z,18.52
2023-07-22T07:02:07.803Z,18.23